Johnny Sr — WTP4938 — position and weather

sailwx.info

Track history (hours):
 
Tides and Currents Weather Stations Pressure Air Temp Water Temp Dewpoint Dewpoint Depression Visibility Wind Speed Wind Dir Waves Ship Positions

Johnny Sr

Owner: CALLAIS AND Sons LLC, CUT OFF, LA. More information available from US FCC via Universal Licensing System and Coast Guard Vessel Documentation Center.

Last reported at 2017-Nov-19 05:57 UTC. Time now 2017-Nov-22 14:49 UTC.
Position N 29°35' W 090°36'.

; draft 3 m.

Type: Towing. MMSI: 367005190.

Date/timePositionNaut miles runAvg speedWind from/ knotsBaromVisibWave heightAir tempDewpointWater temp
2017-Nov-19 05:57N 29°35' W 090°36'4 2.9
2017-Nov-19 04:35N 29°36' W 090°40'0 3.9
2017-Nov-19 04:29N 29°36' W 090°40'2 3.5
2017-Nov-19 04:00N 29°37' W 090°42'2 3.8
2017-Nov-19 03:30N 29°35' W 090°43'2 3.1
2017-Nov-19 03:00N 29°34' W 090°44'2 4.2
2017-Nov-19 02:28N 29°32' W 090°46'2 4.4
2017-Nov-19 01:59N 29°32' W 090°48'0 0.0
2017-Nov-18 01:36N 29°32' W 090°49'2 4.8
2017-Nov-18 01:12N 29°32' W 090°46'1 4.1
2017-Nov-18 01:00N 29°32' W 090°46'2 4.0
2017-Nov-18 00:30N 29°34' W 090°44'1 2.8
2017-Nov-18 00:00N 29°35' W 090°43'2 3.4
2017-Nov-17 23:30N 29°37' W 090°42'1 1.1
2017-Nov-17 23:00N 29°37' W 090°42'0 0.0
2017-Nov-17 22:30N 29°37' W 090°42'1 2.1
2017-Nov-17 22:00N 29°36' W 090°41'2 4.7
2017-Nov-17 21:30N 29°35' W 090°38'2 0.1
2017-Nov-17 03:18N 29°35' W 090°37'4 4.4
2017-Nov-17 02:24N 29°36' W 090°41'0 0.1
2017-Nov-17 01:54N 29°36' W 090°41'2 4.2
2017-Nov-17 01:30N 29°37' W 090°42'2 4.9
2017-Nov-17 01:00N 29°34' W 090°43'1 2.0
2017-Nov-17 00:30N 29°34' W 090°44'0 0.3
2017-Nov-17 00:00N 29°34' W 090°44'2 4.0
2017-Nov-16 23:30N 29°32' W 090°46'68 4.2
2017-Nov-16 07:18N 29°49' W 092°02'2 5.3
2017-Nov-16 07:01N 29°49' W 092°03'3 4.8
2017-Nov-16 06:28N 29°48' W 092°06'2 4.4
2017-Nov-16 06:01N 29°47' W 092°08'2 3.4
2017-Nov-16 05:31N 29°47' W 092°10'2 4.2
2017-Nov-16 05:01N 29°47' W 092°12'0 0.9
2017-Nov-16 04:31N 29°47' W 092°13'1 2.5
2017-Nov-16 04:01N 29°48' W 092°14'3 5.1
2017-Nov-16 03:31N 29°49' W 092°17'48 4.5
2017-Nov-15 16:47N 29°58' W 093°11'1 5.3
2017-Nov-15 16:31N 29°59' W 093°12'2 4.8
2017-Nov-15 16:00N 30°01' W 093°14'2 4.8
2017-Nov-15 15:31N 30°03' W 093°16'2 4.8
2017-Nov-15 15:01N 30°05' W 093°17'1 2.4
2017-Nov-15 14:31N 30°06' W 093°18'0 0.8
2017-Nov-15 14:01N 30°06' W 093°18'0 0.0
2017-Nov-15 13:31N 30°06' W 093°18'0 0.4
2017-Nov-15 13:00N 30°06' W 093°18'2 4.6
2017-Nov-15 12:31N 30°05' W 093°20'2 3.8
2017-Nov-15 12:00N 30°04' W 093°22'8 3.4
2017-Nov-15 09:48N 30°04' W 093°31'  
2017-Nov-12 19:37N 29°36' W 094°57'147 4.3
2017-Nov-11 09:07N 29°47' W 092°08'1 5.4
2017-Nov-11 08:59N 29°47' W 092°07'70 3.6
2017-Nov-10 13:12N 29°32' W 090°48'1 6.0
2017-Nov-10 12:59N 29°32' W 090°47'2 3.8
2017-Nov-10 12:30N 29°33' W 090°45'2 4.2
2017-Nov-10 12:00N 29°34' W 090°43'5 3.2
2017-Nov-10 10:31N 29°35' W 090°38'0 5.4
2017-Nov-10 10:30N 29°35' W 090°37'  
Track history (hours):
 
Tides and Currents Weather Stations Pressure Air Temp Water Temp Dewpoint Dewpoint Depression Visibility Wind Speed Wind Dir Waves Ship Positions

Johnny Sr

Owner: CALLAIS AND Sons LLC, CUT OFF, LA. More information available from US FCC via Universal Licensing System and Coast Guard Vessel Documentation Center.

Last reported at 2017-Nov-19 05:57 UTC. Time now 2017-Nov-22 14:49 UTC.
Position N 29°35' W 090°36'.

; draft 3 m.

Type: Towing. MMSI: 367005190.

Date/timePositionNaut miles runAvg speedWind from/ knotsBaromVisibWave heightAir tempDewpointWater temp
2017-Nov-19 05:57N 29°35' W 090°36'4 2.9
2017-Nov-19 04:35N 29°36' W 090°40'0 3.9
2017-Nov-19 04:29N 29°36' W 090°40'2 3.5
2017-Nov-19 04:00N 29°37' W 090°42'2 3.8
2017-Nov-19 03:30N 29°35' W 090°43'2 3.1
2017-Nov-19 03:00N 29°34' W 090°44'2 4.2
2017-Nov-19 02:28N 29°32' W 090°46'2 4.4
2017-Nov-19 01:59N 29°32' W 090°48'0 0.0
2017-Nov-18 01:36N 29°32' W 090°49'2 4.8
2017-Nov-18 01:12N 29°32' W 090°46'1 4.1
2017-Nov-18 01:00N 29°32' W 090°46'2 4.0
2017-Nov-18 00:30N 29°34' W 090°44'1 2.8
2017-Nov-18 00:00N 29°35' W 090°43'2 3.4
2017-Nov-17 23:30N 29°37' W 090°42'1 1.1
2017-Nov-17 23:00N 29°37' W 090°42'0 0.0
2017-Nov-17 22:30N 29°37' W 090°42'1 2.1
2017-Nov-17 22:00N 29°36' W 090°41'2 4.7
2017-Nov-17 21:30N 29°35' W 090°38'2 0.1
2017-Nov-17 03:18N 29°35' W 090°37'4 4.4
2017-Nov-17 02:24N 29°36' W 090°41'0 0.1
2017-Nov-17 01:54N 29°36' W 090°41'2 4.2
2017-Nov-17 01:30N 29°37' W 090°42'2 4.9
2017-Nov-17 01:00N 29°34' W 090°43'1 2.0
2017-Nov-17 00:30N 29°34' W 090°44'0 0.3
2017-Nov-17 00:00N 29°34' W 090°44'2 4.0
2017-Nov-16 23:30N 29°32' W 090°46'68 4.2
2017-Nov-16 07:18N 29°49' W 092°02'2 5.3
2017-Nov-16 07:01N 29°49' W 092°03'3 4.8
2017-Nov-16 06:28N 29°48' W 092°06'2 4.4
2017-Nov-16 06:01N 29°47' W 092°08'2 3.4
2017-Nov-16 05:31N 29°47' W 092°10'2 4.2
2017-Nov-16 05:01N 29°47' W 092°12'0 0.9
2017-Nov-16 04:31N 29°47' W 092°13'1 2.5
2017-Nov-16 04:01N 29°48' W 092°14'3 5.1
2017-Nov-16 03:31N 29°49' W 092°17'48 4.5
2017-Nov-15 16:47N 29°58' W 093°11'1 5.3
2017-Nov-15 16:31N 29°59' W 093°12'2 4.8
2017-Nov-15 16:00N 30°01' W 093°14'2 4.8
2017-Nov-15 15:31N 30°03' W 093°16'2 4.8
2017-Nov-15 15:01N 30°05' W 093°17'1 2.4
2017-Nov-15 14:31N 30°06' W 093°18'0 0.8
2017-Nov-15 14:01N 30°06' W 093°18'0 0.0
2017-Nov-15 13:31N 30°06' W 093°18'0 0.4
2017-Nov-15 13:00N 30°06' W 093°18'2 4.6
2017-Nov-15 12:31N 30°05' W 093°20'2 3.8
2017-Nov-15 12:00N 30°04' W 093°22'8 3.4
2017-Nov-15 09:48N 30°04' W 093°31'  
2017-Nov-12 19:37N 29°36' W 094°57'147 4.3
2017-Nov-11 09:07N 29°47' W 092°08'1 5.4
2017-Nov-11 08:59N 29°47' W 092°07'70 3.6
2017-Nov-10 13:12N 29°32' W 090°48'1 6.0
2017-Nov-10 12:59N 29°32' W 090°47'2 3.8
2017-Nov-10 12:30N 29°33' W 090°45'2 4.2
2017-Nov-10 12:00N 29°34' W 090°43'5 3.2
2017-Nov-10 10:31N 29°35' W 090°38'0 5.4
2017-Nov-10 10:30N 29°35' W 090°37'  

Dump ship's entire track history